Silsbee, Texas
Current Conditions -  °F | °C
As of 8:35 PM on Wednesday 17 Dec 2014 (Local Time) from KBMT Reporting Station
Overcast Overcast  
Wind Chill: 56°   Ceiling: 3400
Heat Index: 56°   Visibility: 10mi
Dew Point: 49°   Wind: 5mph
Humidity: 78%   Direction: 100°E
Pressure: 30.14"   Gusts: NA
Location:  30.35°N, 94.18°W
Report Text: KBMT 180235Z AUTO 10004KT 10SM OVC034 14/10 A3014 RMK AO2 T01350097
Loading
Personal Weather Stations






























Interactive Weather Map New forecast layout! Learn more

10-Day Weather Forecast

Advertisements
Track Severe Weather on mobile